createdAt,value
2023-04-03T00:02:28.609Z,101621.44
2023-04-03T00:04:56.244Z,101618.59
2023-04-03T00:07:23.727Z,101619.34
2023-04-03T00:09:51.200Z,101621.22
2023-04-03T00:12:18.721Z,101617.50
2023-04-03T00:14:46.190Z,101620.13
2023-04-03T00:17:13.638Z,101625.16
2023-04-03T00:19:42.418Z,101619.16
2023-04-03T00:22:09.880Z,101627.59
2023-04-03T00:24:37.361Z,101626.97
2023-04-03T00:27:04.923Z,101637.41
2023-04-03T00:29:32.438Z,101629.53
2023-04-03T00:31:59.926Z,101633.03
2023-04-03T00:34:27.387Z,101636.50
2023-04-03T00:36:56.233Z,101640.03
2023-04-03T00:39:23.909Z,101629.53
2023-04-03T00:41:51.550Z,101632.25
2023-04-03T00:44:23.777Z,101638.84
2023-04-03T00:46:51.520Z,101634.63
2023-04-03T00:49:19.184Z,101637.25
2023-04-03T00:51:46.761Z,101638.25
2023-04-03T00:54:15.574Z,101646.53
2023-04-03T00:56:43.275Z,101646.66
2023-04-03T00:59:13.231Z,101646.53
2023-04-03T01:01:41.179Z,101647.41
2023-04-03T01:04:28.909Z,101657.72
2023-04-03T01:06:57.744Z,101661.25
2023-04-03T01:09:26.553Z,101659.31
2023-04-03T01:11:54.006Z,101667.34
2023-04-03T01:14:21.524Z,101657.38
2023-04-03T01:16:54.389Z,101669.53
2023-04-03T01:19:23.872Z,101664.50
2023-04-03T01:22:04.774Z,101666.00
2023-04-03T01:24:39.901Z,101666.91
2023-04-03T01:27:09.063Z,101667.56
2023-04-03T01:29:36.621Z,101665.50
2023-04-03T01:32:06.112Z,101665.78
2023-04-03T01:34:33.609Z,101666.25
2023-04-03T01:37:01.119Z,101672.47
2023-04-03T01:39:28.614Z,101675.91
2023-04-03T01:41:56.116Z,101680.34
2023-04-03T01:44:23.626Z,101677.34
2023-04-03T01:46:51.086Z,101672.88
2023-04-03T01:49:20.202Z,101680.66
2023-04-03T01:51:47.678Z,101687.78
2023-04-03T01:54:15.444Z,101679.97
2023-04-03T01:56:42.936Z,101685.84
2023-04-03T01:59:10.652Z,101687.34
2023-04-03T02:01:38.205Z,101687.47
2023-04-03T02:04:05.819Z,101686.44
2023-04-03T02:06:34.597Z,101689.06
2023-04-03T02:09:02.160Z,101683.75
2023-04-03T02:11:29.620Z,101682.69
2023-04-03T02:13:57.082Z,101684.47
2023-04-03T02:16:24.557Z,101680.13
2023-04-03T02:18:52.079Z,101683.53
2023-04-03T02:21:19.585Z,101680.13
2023-04-03T02:23:48.355Z,101682.25
2023-04-03T02:26:17.772Z,101687.34
2023-04-03T02:28:45.395Z,101680.28
2023-04-03T02:31:12.927Z,101688.16
2023-04-03T02:33:40.686Z,101686.56
2023-04-03T02:36:09.049Z,101689.06
2023-04-03T02:38:37.105Z,101695.91
2023-04-03T02:41:07.093Z,101696.47
2023-04-03T02:43:34.796Z,101700.75
2023-04-03T02:46:02.430Z,101698.81
2023-04-03T02:48:30.634Z,101697.88
2023-04-03T02:50:58.149Z,101697.97
2023-04-03T02:53:25.682Z,101698.44
2023-04-03T02:55:53.175Z,101712.00
2023-04-03T02:58:22.000Z,101708.16
2023-04-03T03:00:49.469Z,101712.19
2023-04-03T03:03:16.945Z,101711.53
2023-04-03T03:05:44.406Z,101706.59
2023-04-03T03:08:11.924Z,101705.25
2023-04-03T03:10:39.565Z,101709.66
2023-04-03T03:13:07.226Z,101711.94
2023-04-03T03:15:36.114Z,101712.44
2023-04-03T03:18:04.864Z,101712.78
2023-04-03T03:20:32.362Z,101713.13
2023-04-03T03:22:59.844Z,101709.66
2023-04-03T03:25:27.297Z,101712.47
2023-04-03T03:27:54.780Z,101715.53
2023-04-03T03:30:22.316Z,101710.19
2023-04-03T03:32:51.324Z,101718.38
2023-04-03T03:35:18.829Z,101719.13
2023-04-03T03:37:46.561Z,101721.59
2023-04-03T03:40:14.793Z,101723.16
2023-04-03T03:42:42.257Z,101722.31
2023-04-03T03:45:11.004Z,101717.00
2023-04-03T03:47:38.519Z,101718.63
2023-04-03T03:50:08.891Z,101719.97
2023-04-03T03:52:36.376Z,101723.81
2023-04-03T03:55:03.974Z,101721.19
2023-04-03T03:57:31.725Z,101723.56
2023-04-03T03:59:59.331Z,101727.59
2023-04-03T04:02:27.044Z,101726.59
2023-04-03T04:04:54.661Z,101727.50
2023-04-03T04:07:23.705Z,101721.34
2023-04-03T04:09:51.329Z,101718.84
2023-04-03T04:12:18.783Z,101719.06
2023-04-03T04:14:47.610Z,101719.88
2023-04-03T04:17:15.296Z,101718.09
2023-04-03T04:19:42.927Z,101715.31
2023-04-03T04:22:10.424Z,101726.50
2023-04-03T04:24:39.961Z,101731.09
2023-04-03T04:27:07.545Z,101736.09
2023-04-03T04:29:36.766Z,101737.00
2023-04-03T04:32:04.625Z,101741.50
2023-04-03T04:34:32.248Z,101748.25
2023-04-03T04:36:59.782Z,101750.50
2023-04-03T04:39:27.317Z,101749.97
2023-04-03T04:41:56.163Z,101749.22
2023-04-03T04:44:23.676Z,101755.69
2023-04-03T04:46:51.115Z,101753.66
2023-04-03T04:49:18.660Z,101754.53
2023-04-03T04:51:51.979Z,101752.59
2023-04-03T04:54:20.164Z,101756.16
2023-04-03T04:56:47.635Z,101770.03
2023-04-03T04:59:16.504Z,101764.97
2023-04-03T05:01:44.012Z,101767.25
2023-04-03T05:04:13.502Z,101762.66
2023-04-03T05:06:41.240Z,101769.72
2023-04-03T05:09:09.807Z,101769.19
2023-04-03T05:11:37.425Z,101780.03
2023-04-03T05:14:07.310Z,101780.78
2023-04-03T05:16:36.166Z,101774.69
2023-04-03T05:19:04.059Z,101779.94
2023-04-03T05:21:33.419Z,101780.94
2023-04-03T05:24:03.612Z,101779.94
2023-04-03T05:26:31.599Z,101781.59
2023-04-03T05:28:59.133Z,101784.63
2023-04-03T05:31:26.955Z,101789.13
2023-04-03T05:33:55.761Z,101792.56
2023-04-03T05:36:23.550Z,101789.94
2023-04-03T05:38:51.274Z,101794.53
2023-04-03T05:41:21.586Z,101801.25
2023-04-03T05:43:49.156Z,101795.09
2023-04-03T05:46:18.219Z,101790.50
2023-04-03T05:48:46.611Z,101790.50
2023-04-03T05:51:18.156Z,101794.34
2023-04-03T05:53:46.305Z,101799.84
2023-04-03T05:56:13.810Z,101787.78
2023-04-03T05:58:41.296Z,101809.34
2023-04-03T06:01:08.771Z,101802.84
2023-04-03T06:03:38.619Z,101802.75
2023-04-03T06:06:08.934Z,101800.53
2023-04-03T06:08:37.730Z,101804.47
2023-04-03T06:11:05.251Z,101804.53
2023-04-03T06:13:32.876Z,101805.53
2023-04-03T06:16:00.351Z,101805.75
2023-04-03T06:18:27.836Z,101810.41
2023-04-03T06:20:55.283Z,101811.03
2023-04-03T06:23:22.761Z,101812.16
2023-04-03T06:25:51.666Z,101814.91
2023-04-03T06:28:20.258Z,101812.13
2023-04-03T06:30:47.713Z,101814.75
2023-04-03T06:33:15.586Z,101815.50
2023-04-03T06:35:43.130Z,101811.16
2023-04-03T06:38:10.949Z,101814.84
2023-04-03T06:40:39.536Z,101817.97
2023-04-03T06:43:09.408Z,101811.72
2023-04-03T06:45:37.420Z,101818.91
2023-04-03T06:48:06.525Z,101814.75
2023-04-03T06:50:34.166Z,101821.75
2023-04-03T06:53:02.027Z,101822.47
2023-04-03T06:55:29.510Z,101819.75
2023-04-03T06:57:57.113Z,101821.97
2023-04-03T07:00:27.050Z,101821.69
2023-04-03T07:02:54.584Z,101825.31
2023-04-03T07:05:22.332Z,101827.22
2023-04-03T07:07:50.770Z,101833.03
2023-04-03T07:10:18.384Z,101829.22
2023-04-03T07:12:46.265Z,101824.16
2023-04-03T07:15:13.900Z,101831.84
2023-04-03T07:17:42.916Z,101833.16
2023-04-03T07:20:10.862Z,101835.03
2023-04-03T07:22:38.538Z,101841.06
2023-04-03T07:25:08.179Z,101840.66
2023-04-03T07:27:36.334Z,101844.59
2023-04-03T07:30:04.600Z,101839.00
2023-04-03T07:32:32.107Z,101843.44
2023-04-03T07:35:02.305Z,101847.34
2023-04-03T07:37:30.066Z,101848.69
2023-04-03T07:39:59.439Z,101849.28
2023-04-03T07:42:27.625Z,101854.91
2023-04-03T07:44:55.144Z,101843.28
2023-04-03T07:47:23.126Z,101845.75
2023-04-03T07:49:50.790Z,101849.28
2023-04-03T07:52:19.577Z,101851.38
2023-04-03T07:54:47.058Z,101848.00
2023-04-03T07:57:14.550Z,101848.56
2023-04-03T07:59:43.640Z,101846.44
2023-04-03T08:02:11.403Z,101841.78
2023-04-03T08:04:39.065Z,101838.84
2023-04-03T08:07:06.893Z,101840.28
2023-04-03T08:09:35.832Z,101843.16
2023-04-03T08:12:03.299Z,101835.50
2023-04-03T08:14:32.520Z,101828.94
2023-04-03T08:17:00.293Z,101834.19
2023-04-03T08:19:28.433Z,101820.94
2023-04-03T08:21:57.642Z,101836.28
2023-04-03T08:24:25.208Z,101824.16
2023-04-03T08:26:54.007Z,101837.59
2023-04-03T08:29:22.092Z,101831.41
2023-04-03T08:31:50.650Z,101838.75
2023-04-03T08:34:18.936Z,101831.72
2023-04-03T08:36:46.631Z,101832.63
2023-04-03T08:39:16.896Z,101835.09
2023-04-03T08:41:47.346Z,101830.63
2023-04-03T08:44:20.767Z,101843.06
2023-04-03T08:46:58.849Z,101838.94
2023-04-03T08:49:29.185Z,101842.59
2023-04-03T08:51:57.016Z,101836.31
2023-04-03T08:54:31.387Z,101839.16
2023-04-03T08:57:02.110Z,101834.81
2023-04-03T08:59:34.926Z,101833.06
2023-04-03T09:02:05.691Z,101835.63
2023-04-03T09:04:35.964Z,101842.91
2023-04-03T09:07:09.456Z,101847.53
2023-04-03T09:09:40.688Z,101831.59
2023-04-03T09:12:15.931Z,101829.31
2023-04-03T09:14:48.646Z,101835.75
2023-04-03T09:17:29.016Z,101827.59
2023-04-03T09:20:00.550Z,101829.75
2023-04-03T09:22:32.699Z,101822.28
2023-04-03T09:25:02.478Z,101828.78
2023-04-03T09:27:30.076Z,101832.38
2023-04-03T09:29:59.560Z,101833.38
2023-04-03T09:32:29.571Z,101831.03
2023-04-03T09:35:01.559Z,101837.56
2023-04-03T09:37:41.173Z,101831.94
2023-04-03T09:40:30.676Z,101845.28
2023-04-03T09:43:01.583Z,101829.63
2023-04-03T09:45:32.731Z,101832.00
2023-04-03T09:48:15.284Z,101835.50
2023-04-03T09:50:56.406Z,101835.44
2023-04-03T09:53:29.442Z,101823.00
2023-04-03T09:55:56.948Z,101823.06
2023-04-03T09:58:42.667Z,101825.66
2023-04-03T10:01:27.347Z,101820.97
2023-04-03T10:04:07.417Z,101824.22
2023-04-03T10:06:37.520Z,101804.59
2023-04-03T10:09:09.631Z,101815.84
2023-04-03T10:11:37.509Z,101810.63
2023-04-03T10:14:07.853Z,101805.59
2023-04-03T10:16:44.548Z,101807.31
2023-04-03T10:19:24.400Z,101812.25
2023-04-03T10:21:57.759Z,101812.03
2023-04-03T10:24:29.122Z,101812.41
2023-04-03T10:27:00.758Z,101804.44
2023-04-03T10:29:40.644Z,101804.72
2023-04-03T10:32:32.237Z,101805.00
2023-04-03T10:35:05.555Z,101802.78
2023-04-03T10:37:39.755Z,101789.59
2023-04-03T10:40:17.590Z,101809.47
2023-04-03T10:42:48.675Z,101793.91
2023-04-03T10:45:23.183Z,101798.63
2023-04-03T10:47:59.563Z,101783.00
2023-04-03T10:50:38.265Z,101783.84
2023-04-03T10:53:10.407Z,101784.47
2023-04-03T10:55:40.495Z,101786.25
2023-04-03T10:58:08.530Z,101773.94
2023-04-03T11:00:40.860Z,101777.94
2023-04-03T11:03:13.804Z,101754.56
2023-04-03T11:05:41.876Z,101770.94
2023-04-03T11:08:14.463Z,101759.28
2023-04-03T11:10:44.903Z,101775.91
2023-04-03T11:13:14.683Z,101764.56
2023-04-03T11:15:43.163Z,101762.25
2023-04-03T11:18:16.175Z,101767.44
2023-04-03T11:20:44.367Z,101753.13
2023-04-03T11:23:20.932Z,101777.00
2023-04-03T11:25:52.231Z,101767.75
2023-04-03T11:28:20.103Z,101765.13
2023-04-03T11:30:53.609Z,101768.41
2023-04-03T11:33:41.875Z,101759.63
2023-04-03T11:36:26.279Z,101756.06
2023-04-03T11:38:59.760Z,101761.56
2023-04-03T11:41:29.807Z,101764.06
2023-04-03T11:43:59.813Z,101759.50
2023-04-03T11:46:51.581Z,101750.47
2023-04-03T11:49:54.449Z,101742.84
2023-04-03T11:53:03.772Z,101739.84
2023-04-03T11:55:57.486Z,101743.41
2023-04-03T11:58:26.391Z,101729.00
2023-04-03T12:00:59.185Z,101728.00
2023-04-03T12:04:14.869Z,101720.25
2023-04-03T12:06:55.843Z,101715.00
2023-04-03T12:09:36.504Z,101734.38
2023-04-03T12:12:35.478Z,101727.59
2023-04-03T12:15:50.925Z,101726.75
2023-04-03T12:18:59.479Z,101711.69
2023-04-03T12:22:10.769Z,101716.44
2023-04-03T12:24:41.299Z,101714.44
2023-04-03T12:27:31.362Z,101700.91
2023-04-03T12:30:04.514Z,101708.91
2023-04-03T12:33:09.612Z,101703.13
2023-04-03T12:35:46.508Z,101702.78
2023-04-03T12:38:25.130Z,101704.78
2023-04-03T12:40:55.642Z,101694.56
2023-04-03T12:43:33.758Z,101693.47
2023-04-03T12:46:05.479Z,101696.84
2023-04-03T12:48:34.786Z,101693.13
2023-04-03T12:51:02.842Z,101684.75
2023-04-03T12:53:35.723Z,101686.63
2023-04-03T12:56:18.005Z,101692.03
2023-04-03T12:58:45.816Z,101689.03
2023-04-03T13:01:15.042Z,101697.63
2023-04-03T13:03:46.155Z,101683.88
2023-04-03T13:06:19.646Z,101685.47
2023-04-03T13:08:52.809Z,101680.66
2023-04-03T13:11:21.811Z,101692.78
2023-04-03T13:13:59.791Z,101678.91
2023-04-03T13:16:28.260Z,101683.47
2023-04-03T13:18:56.483Z,101677.72
2023-04-03T13:21:27.711Z,101679.00
2023-04-03T13:24:11.528Z,101681.66
2023-04-03T13:26:43.328Z,101671.97
2023-04-03T13:29:29.828Z,101651.38
2023-04-03T13:31:59.193Z,101669.75
2023-04-03T13:34:28.834Z,101670.88
2023-04-03T13:36:58.683Z,101676.06
2023-04-03T13:39:29.984Z,101680.69
2023-04-03T13:41:59.026Z,101665.94
2023-04-03T13:44:31.857Z,101661.44
2023-04-03T13:47:01.892Z,101641.34
2023-04-03T13:49:36.420Z,101660.34
2023-04-03T13:52:07.770Z,101654.06
2023-04-03T13:54:38.812Z,101660.56
2023-04-03T13:57:14.077Z,101664.41
2023-04-03T13:59:44.069Z,101652.56
2023-04-03T14:02:18.732Z,101647.78
2023-04-03T14:04:57.364Z,101646.69
2023-04-03T14:07:25.560Z,101647.66
2023-04-03T14:09:55.138Z,101645.00
2023-04-03T14:12:31.541Z,101647.03
2023-04-03T14:14:59.999Z,101640.81
2023-04-03T14:17:28.662Z,101642.94
2023-04-03T14:19:57.719Z,101645.94
2023-04-03T14:22:29.241Z,101640.09
2023-04-03T14:24:58.392Z,101632.09
2023-04-03T14:27:29.460Z,101632.09
2023-04-03T14:29:59.242Z,101625.66
2023-04-03T14:32:27.636Z,101636.59
2023-04-03T14:34:55.249Z,101655.47
2023-04-03T14:37:25.608Z,101647.47
2023-04-03T14:39:54.936Z,101651.16
2023-04-03T14:42:26.021Z,101642.84
2023-04-03T14:44:53.823Z,101625.97
2023-04-03T14:47:31.221Z,101628.41
2023-04-03T14:49:59.832Z,101615.56
2023-04-03T14:52:30.404Z,101618.94
2023-04-03T14:54:59.712Z,101621.28
2023-04-03T14:57:30.215Z,101624.03
2023-04-03T14:59:58.072Z,101612.97
2023-04-03T15:02:30.975Z,101614.69
2023-04-03T15:04:59.744Z,101619.59
2023-04-03T15:07:29.799Z,101630.69
2023-04-03T15:09:57.658Z,101622.03
2023-04-03T15:12:25.351Z,101621.22
2023-04-03T15:15:01.813Z,101625.88
2023-04-03T15:17:30.628Z,101616.72
2023-04-03T15:19:58.264Z,101607.44
2023-04-03T15:22:25.820Z,101601.31
2023-04-03T15:24:53.295Z,101613.13
2023-04-03T15:27:20.934Z,101611.56
2023-04-03T15:29:48.425Z,101624.22
2023-04-03T15:32:17.240Z,101616.06
2023-04-03T15:34:44.796Z,101613.31
2023-04-03T15:37:12.293Z,101619.69
2023-04-03T15:39:39.782Z,101615.19
2023-04-03T15:42:07.675Z,101618.97
2023-04-03T15:44:35.558Z,101617.44
2023-04-03T15:47:03.616Z,101609.22
2023-04-03T15:49:32.870Z,101605.28
2023-04-03T15:52:00.327Z,101601.63
2023-04-03T15:54:28.009Z,101610.22
2023-04-03T15:56:55.528Z,101610.72
2023-04-03T15:59:23.049Z,101610.66
2023-04-03T16:01:51.061Z,101611.47
2023-04-03T16:04:19.454Z,101608.88
2023-04-03T16:06:49.376Z,101627.13
2023-04-03T16:09:16.901Z,101617.06
2023-04-03T16:11:44.507Z,101617.66
2023-04-03T16:14:12.585Z,101617.44
2023-04-03T16:16:40.326Z,101614.25
2023-04-03T16:19:08.262Z,101620.53
2023-04-03T16:21:35.879Z,101614.47
2023-04-03T16:24:05.259Z,101617.28
2023-04-03T16:26:32.892Z,101614.78
2023-04-03T16:29:00.396Z,101617.00
2023-04-03T16:31:29.259Z,101604.31
2023-04-03T16:33:57.480Z,101605.53
2023-04-03T16:36:26.086Z,101611.06
2023-04-03T16:38:53.728Z,101615.31
2023-04-03T16:41:22.585Z,101622.44
2023-04-03T16:43:50.972Z,101612.88
2023-04-03T16:46:18.490Z,101615.97
2023-04-03T16:48:45.998Z,101616.28
2023-04-03T16:51:13.990Z,101625.47
2023-04-03T16:53:41.472Z,101610.09
2023-04-03T16:56:08.980Z,101619.28
2023-04-03T16:58:37.807Z,101625.59
2023-04-03T17:01:12.904Z,101614.44
2023-04-03T17:03:40.799Z,101623.72
2023-04-03T17:06:08.359Z,101621.13
2023-04-03T17:08:36.526Z,101615.06
2023-04-03T17:11:04.017Z,101618.53
2023-04-03T17:13:34.630Z,101613.59
2023-04-03T17:16:05.727Z,101621.13
2023-04-03T17:18:33.812Z,101611.44
2023-04-03T17:21:01.478Z,101614.56
2023-04-03T17:23:29.792Z,101618.94
2023-04-03T17:25:57.651Z,101615.69
2023-04-03T17:28:28.102Z,101622.00
2023-04-03T17:30:55.843Z,101617.03
2023-04-03T17:33:25.952Z,101624.00
2023-04-03T17:35:53.612Z,101626.66
2023-04-03T17:38:21.221Z,101618.00
2023-04-03T17:40:48.727Z,101614.56
2023-04-03T17:43:16.413Z,101613.91
2023-04-03T17:45:45.287Z,101616.16
2023-04-03T17:48:12.844Z,101618.75
2023-04-03T17:50:41.683Z,101625.56
2023-04-03T17:53:09.156Z,101621.88
2023-04-03T17:55:38.657Z,101634.41
2023-04-03T17:58:06.727Z,101628.28
2023-04-03T18:00:35.335Z,101624.91
2023-04-03T18:03:03.606Z,101617.28
2023-04-03T18:05:31.236Z,101627.56
2023-04-03T18:08:01.406Z,101624.19
2023-04-03T18:10:29.049Z,101624.19
2023-04-03T18:12:57.263Z,101623.94
2023-04-03T18:15:25.641Z,101628.13
2023-04-03T18:17:56.594Z,101623.03
2023-04-03T18:20:24.546Z,101618.84
2023-04-03T18:22:52.547Z,101626.66
2023-04-03T18:25:21.972Z,101632.00
2023-04-03T18:27:49.713Z,101624.19
2023-04-03T18:30:18.900Z,101630.38
2023-04-03T18:32:46.429Z,101631.69
2023-04-03T18:35:14.459Z,101632.41
2023-04-03T18:37:42.470Z,101624.28
2023-04-03T18:40:11.246Z,101625.91
2023-04-03T18:42:41.171Z,101634.41
2023-04-03T18:45:09.361Z,101633.19
2023-04-03T18:47:36.900Z,101631.50
2023-04-03T18:50:05.313Z,101633.16
2023-04-03T18:52:32.931Z,101646.50
2023-04-03T18:55:01.592Z,101636.44
2023-04-03T18:57:29.933Z,101626.97
2023-04-03T18:59:58.906Z,101641.84
2023-04-03T19:02:26.966Z,101652.78
2023-04-03T19:04:54.846Z,101649.38
2023-04-03T19:07:22.441Z,101652.81
2023-04-03T19:09:50.328Z,101658.81
2023-04-03T19:12:17.876Z,101659.56
2023-04-03T19:14:45.474Z,101655.97
2023-04-03T19:17:14.425Z,101654.53
2023-04-03T19:19:42.015Z,101654.94
2023-04-03T19:22:09.693Z,101658.84
2023-04-03T19:24:37.551Z,101662.13
2023-04-03T19:27:05.269Z,101666.59
2023-04-03T19:29:33.003Z,101659.13
2023-04-03T19:32:01.495Z,101662.84
2023-04-03T19:34:30.491Z,101662.19
2023-04-03T19:36:58.508Z,101657.34
2023-04-03T19:39:26.420Z,101656.84
2023-04-03T19:41:53.960Z,101656.19
2023-04-03T19:44:21.518Z,101656.13
2023-04-03T19:46:51.250Z,101651.09
2023-04-03T19:49:19.688Z,101655.00
2023-04-03T19:51:48.693Z,101662.59
2023-04-03T19:54:16.248Z,101658.81
2023-04-03T19:56:43.813Z,101662.41
2023-04-03T19:59:14.143Z,101664.22
2023-04-03T20:01:42.060Z,101665.28
2023-04-03T20:04:10.063Z,101667.59
2023-04-03T20:06:37.698Z,101665.72
2023-04-03T20:09:06.754Z,101665.84
2023-04-03T20:11:35.605Z,101659.66
2023-04-03T20:14:03.271Z,101670.69
2023-04-03T20:16:31.059Z,101666.66
2023-04-03T20:18:58.765Z,101650.78
2023-04-03T20:21:30.636Z,101654.09
2023-04-03T20:23:58.199Z,101644.81
2023-04-03T20:26:29.742Z,101650.50
2023-04-03T20:28:58.756Z,101665.03
2023-04-03T20:31:27.406Z,101663.41
2023-04-03T20:33:55.047Z,101661.09
2023-04-03T20:36:23.595Z,101659.56
2023-04-03T20:38:52.706Z,101661.28
2023-04-03T20:41:20.392Z,101654.03
2023-04-03T20:43:49.485Z,101654.53
2023-04-03T20:46:19.582Z,101649.53
2023-04-03T20:48:48.040Z,101651.44
2023-04-03T20:51:18.249Z,101655.81
2023-04-03T20:53:46.029Z,101657.81
2023-04-03T20:56:15.588Z,101660.41
2023-04-03T20:58:46.097Z,101649.59
2023-04-03T21:01:17.064Z,101656.94
2023-04-03T21:03:46.234Z,101651.25
2023-04-03T21:06:51.730Z,101648.63
2023-04-03T21:09:56.917Z,101646.69
2023-04-03T21:13:03.027Z,101641.50
2023-04-03T21:15:48.912Z,101640.53
2023-04-03T21:18:48.088Z,101640.59
2023-04-03T21:21:20.504Z,101641.97
2023-04-03T21:23:48.757Z,101637.50
2023-04-03T21:26:16.620Z,101639.13
2023-04-03T21:28:44.158Z,101630.66
2023-04-03T21:31:12.789Z,101633.53
2023-04-03T21:33:42.372Z,101623.91
2023-04-03T21:36:10.197Z,101628.38
2023-04-03T21:38:37.716Z,101625.00
2023-04-03T21:41:05.275Z,101626.69
2023-04-03T21:43:33.276Z,101627.72
2023-04-03T21:46:00.842Z,101628.69
2023-04-03T21:48:29.713Z,101622.19
2023-04-03T21:51:04.392Z,101619.69
2023-04-03T21:53:33.953Z,101615.69
2023-04-03T21:56:02.466Z,101617.06
2023-04-03T21:58:32.043Z,101614.63
2023-04-03T22:01:01.892Z,101605.38
2023-04-03T22:03:30.628Z,101614.63
2023-04-03T22:05:59.177Z,101614.56
2023-04-03T22:08:27.984Z,101613.63
2023-04-03T22:11:02.695Z,101616.56
2023-04-03T22:13:30.372Z,101623.03
2023-04-03T22:15:59.140Z,101614.19
2023-04-03T22:18:27.219Z,101604.84
2023-04-03T22:20:55.163Z,101614.41
2023-04-03T22:23:22.679Z,101608.09
2023-04-03T22:26:02.613Z,101607.31
2023-04-03T22:28:30.610Z,101600.13
2023-04-03T22:30:58.184Z,101603.34
2023-04-03T22:33:25.731Z,101607.66
2023-04-03T22:35:53.582Z,101608.28
2023-04-03T22:38:22.419Z,101607.97
2023-04-03T22:40:57.444Z,101607.69
2023-04-03T22:43:26.440Z,101602.19
2023-04-03T22:45:54.212Z,101615.94
2023-04-03T22:48:21.819Z,101604.19
2023-04-03T22:50:49.501Z,101613.84
2023-04-03T22:53:17.024Z,101613.69
2023-04-03T22:55:44.545Z,101611.00
2023-04-03T22:58:12.028Z,101610.63
2023-04-03T23:00:41.077Z,101610.78
2023-04-03T23:03:09.472Z,101612.19
2023-04-03T23:05:40.718Z,101611.28
2023-04-03T23:08:08.377Z,101620.91
2023-04-03T23:10:36.169Z,101618.84
2023-04-03T23:13:03.661Z,101611.97
2023-04-03T23:15:31.338Z,101615.72
2023-04-03T23:18:00.191Z,101612.72
2023-04-03T23:20:27.737Z,101618.13
2023-04-03T23:22:55.223Z,101621.41
2023-04-03T23:25:22.721Z,101617.06
2023-04-03T23:27:52.470Z,101621.97
2023-04-03T23:30:20.883Z,101615.78
2023-04-03T23:32:48.443Z,101617.72
2023-04-03T23:35:17.910Z,101619.06
2023-04-03T23:37:45.408Z,101626.13
2023-04-03T23:40:13.475Z,101623.16
2023-04-03T23:42:41.002Z,101619.88
2023-04-03T23:45:09.722Z,101614.84
2023-04-03T23:47:37.486Z,101632.59
2023-04-03T23:50:05.497Z,101623.78
2023-04-03T23:52:34.442Z,101618.66
2023-04-03T23:55:01.962Z,101618.75
2023-04-03T23:57:29.456Z,101620.75
2023-04-03T23:59:56.961Z,101621.53
